createdAt,value
2016-10-22T00:00:53.056Z,35.52
2016-10-22T00:01:53.114Z,35.41
2016-10-22T00:02:53.120Z,35.42
2016-10-22T00:03:52.815Z,35.41
2016-10-22T00:04:53.085Z,35.5
2016-10-22T00:05:52.786Z,35.41
2016-10-22T00:06:53.102Z,35.41
2016-10-22T00:07:52.791Z,35.41
2016-10-22T00:08:53.111Z,35.52
2016-10-22T00:09:53.121Z,35.5
2016-10-22T00:10:52.814Z,35.31
2016-10-22T00:11:52.873Z,35.42
2016-10-22T00:12:53.142Z,35.21
2016-10-22T00:13:52.884Z,35.42
2016-10-22T00:14:53.154Z,35.5
2016-10-22T00:15:52.848Z,35.31
2016-10-22T00:16:52.911Z,35.42
2016-10-22T00:17:53.173Z,35.5
2016-10-22T00:18:53.236Z,35.6
2016-10-22T00:19:52.932Z,35.5
2016-10-22T00:20:52.882Z,35.41
2016-10-22T00:21:52.889Z,35.31
2016-10-22T00:22:52.898Z,35.5
2016-10-22T00:23:52.992Z,35.31
2016-10-22T00:24:53.226Z,35.5
2016-10-22T00:25:53.233Z,35.5
2016-10-22T00:26:52.928Z,35.41
2016-10-22T00:27:52.934Z,35.5
2016-10-22T00:28:53.254Z,35.41
2016-10-22T00:29:53.259Z,35.21
2016-10-22T00:30:52.953Z,35.5
2016-10-22T00:31:53.276Z,35.31
2016-10-22T00:32:52.968Z,35.5
2016-10-22T00:33:53.337Z,35.5
2016-10-22T00:34:53.033Z,35.41
2016-10-22T00:35:53.038Z,35.5
2016-10-22T00:36:53.359Z,35.41
2016-10-22T00:37:53.317Z,35.6
2016-10-22T00:38:53.061Z,35.5
2016-10-22T00:39:53.326Z,35.5
2016-10-22T00:40:53.336Z,35.5
2016-10-22T00:41:53.031Z,35.5
2016-10-22T00:42:53.348Z,35.5
2016-10-22T00:43:53.358Z,35.41
2016-10-22T00:44:53.467Z,35.5
2016-10-22T00:45:53.112Z,35.5
2016-10-22T00:46:53.379Z,35.41
2016-10-22T00:47:53.487Z,35.5
2016-10-22T00:48:53.134Z,35.41
2016-10-22T00:49:53.750Z,35.41
2016-10-22T00:50:53.455Z,35.41
2016-10-22T00:51:53.151Z,35.41
2016-10-22T00:52:53.421Z,35.5
2016-10-22T00:53:53.429Z,35.5
2016-10-22T00:54:53.124Z,35.5
2016-10-22T00:55:53.441Z,35.5
2016-10-22T00:56:53.186Z,35.41
2016-10-22T00:57:53.454Z,35.5
2016-10-22T00:58:55.214Z,35.5
2016-10-22T00:59:53.471Z,35.5
2016-10-22T01:00:53.528Z,35.5
2016-10-22T01:01:53.172Z,35.7
2016-10-22T01:02:53.182Z,35.6
2016-10-22T01:03:53.501Z,35.6
2016-10-22T01:04:53.508Z,35.6
2016-10-22T01:05:53.225Z,35.41
2016-10-22T01:06:53.261Z,35.41
2016-10-22T01:07:53.216Z,35.6
2016-10-22T01:08:53.532Z,35.5
2016-10-22T01:09:53.229Z,35.5
2016-10-22T01:10:53.547Z,35.8
2016-10-22T01:11:53.240Z,35.7
2016-10-22T01:12:53.567Z,35.5
2016-10-22T01:13:53.256Z,35.6
2016-10-22T01:14:53.314Z,35.5
2016-10-22T01:15:53.581Z,35.41
2016-10-22T01:16:53.639Z,35.5
2016-10-22T01:17:53.284Z,35.31
2016-10-22T01:18:53.293Z,35.5
2016-10-22T01:19:53.663Z,35.41
2016-10-22T01:20:53.357Z,35.41
2016-10-22T01:21:53.724Z,35.6
2016-10-22T01:22:53.681Z,35.41
2016-10-22T01:23:53.641Z,35.41
2016-10-22T01:24:53.646Z,35.6
2016-10-22T01:25:53.653Z,35.41
2016-10-22T01:26:53.660Z,35.5
2016-10-22T01:27:53.665Z,35.41
2016-10-22T01:28:56.478Z,35.41
2016-10-22T01:29:53.688Z,35.41
2016-10-22T01:30:53.693Z,35.41
2016-10-22T01:31:53.697Z,35.41
2016-10-22T01:32:53.701Z,35.31
2016-10-22T01:33:53.396Z,35.5
2016-10-22T01:34:53.405Z,35.49
2016-10-22T01:35:53.723Z,35.5
2016-10-22T01:36:53.469Z,35.5
2016-10-22T01:37:53.787Z,35.21
2016-10-22T01:38:53.796Z,35.5
2016-10-22T01:39:53.437Z,35.5
2016-10-22T01:40:53.757Z,35.5
2016-10-22T01:41:53.501Z,35.41
2016-10-22T01:42:53.459Z,35.41
2016-10-22T01:43:53.777Z,35.41
2016-10-22T01:44:53.784Z,35.39
2016-10-22T01:45:53.792Z,35.5
2016-10-22T01:46:53.800Z,35.5
2016-10-22T01:47:53.806Z,35.21
2016-10-22T01:48:53.813Z,35.2
2016-10-22T01:49:53.555Z,35.41
2016-10-22T01:50:53.514Z,35.41
2016-10-22T01:51:53.873Z,35.49
2016-10-22T01:52:53.841Z,35.2
2016-10-22T01:53:53.896Z,35.41
2016-10-22T01:54:53.543Z,35.6
2016-10-22T01:55:53.911Z,35.41
2016-10-22T01:56:53.868Z,35.31
2016-10-22T01:57:53.613Z,35.5
2016-10-22T01:58:53.884Z,35.39
2016-10-22T01:59:53.628Z,35.5
2016-10-22T02:00:53.584Z,35.31
2016-10-22T02:01:53.640Z,35.49
2016-10-22T02:02:53.598Z,35.12
2016-10-22T02:03:53.605Z,35.49
2016-10-22T02:04:53.661Z,35.49
2016-10-22T02:05:53.619Z,35.49
2016-10-22T02:06:53.986Z,35.29
2016-10-22T02:07:53.664Z,35.39
2016-10-22T02:08:54.002Z,35.49
2016-10-22T02:09:54.011Z,35.41
2016-10-22T02:10:54.017Z,35.39
2016-10-22T02:11:53.971Z,35.2
2016-10-22T02:12:53.979Z,35.41
2016-10-22T02:13:53.723Z,35.29
2016-10-22T02:14:53.678Z,35.39
2016-10-22T02:15:53.998Z,35.29
2016-10-22T02:16:53.698Z,35.21
2016-10-22T02:17:54.063Z,35.49
2016-10-22T02:18:54.023Z,35.2
2016-10-22T02:19:54.032Z,35.39
2016-10-22T02:20:53.720Z,35.29
2016-10-22T02:21:53.728Z,35.39
2016-10-22T02:22:54.047Z,35.29
2016-10-22T02:23:53.742Z,35.39
2016-10-22T02:24:54.113Z,35.2
2016-10-22T02:25:54.117Z,35.2
2016-10-22T02:26:54.077Z,35.1
2016-10-22T02:27:53.772Z,35.2
2016-10-22T02:28:54.088Z,35.39
2016-10-22T02:29:53.783Z,35.29
2016-10-22T02:30:53.792Z,35.39
2016-10-22T02:31:53.847Z,35.39
2016-10-22T02:32:53.852Z,35.39
2016-10-22T02:33:53.892Z,35.49
2016-10-22T02:34:54.136Z,35.29
2016-10-22T02:35:54.238Z,35.2
2016-10-22T02:36:54.146Z,35.49
2016-10-22T02:37:54.206Z,35.29
2016-10-22T02:38:54.209Z,35.49
2016-10-22T02:39:54.261Z,35
2016-10-22T02:40:53.908Z,35.29
2016-10-22T02:41:53.915Z,35.1
2016-10-22T02:42:54.186Z,35.21
2016-10-22T02:43:54.194Z,35.2
2016-10-22T02:44:53.886Z,35.2
2016-10-22T02:45:54.206Z,35.21
2016-10-22T02:46:54.212Z,35
2016-10-22T02:47:54.270Z,35.12
2016-10-22T02:48:54.330Z,35.2
2016-10-22T02:49:54.284Z,35.1
2016-10-22T02:50:53.926Z,35
2016-10-22T02:51:53.934Z,34.83
2016-10-22T02:52:53.940Z,34.83
2016-10-22T02:53:54.310Z,35.1
2016-10-22T02:54:53.952Z,34.81
2016-10-22T02:55:54.011Z,34.83
2016-10-22T02:56:54.069Z,34.91
2016-10-22T02:57:53.973Z,34.83
2016-10-22T02:58:54.295Z,34.83
2016-10-22T02:59:54.304Z,34.73
2016-10-22T03:00:53.999Z,34.83
2016-10-22T03:01:54.004Z,34.73
2016-10-22T03:02:54.328Z,34.83
2016-10-22T03:03:54.019Z,34.83
2016-10-22T03:04:54.024Z,35.21
2016-10-22T03:05:54.393Z,34.83
2016-10-22T03:06:54.349Z,34.81
2016-10-22T03:07:54.408Z,34.83
2016-10-22T03:08:54.413Z,34.83
2016-10-22T03:09:54.079Z,35.1
2016-10-22T03:10:54.378Z,35.1
2016-10-22T03:11:54.436Z,35.1
2016-10-22T03:12:54.080Z,35.21
2016-10-22T03:13:54.448Z,35
2016-10-22T03:14:54.412Z,34.81
2016-10-22T03:15:54.099Z,35.1
2016-10-22T03:16:54.420Z,34.91
2016-10-22T03:17:54.111Z,35.1
2016-10-22T03:18:54.117Z,35
2016-10-22T03:19:54.177Z,35.2
2016-10-22T03:20:54.447Z,35
2016-10-22T03:21:54.141Z,35
2016-10-22T03:22:54.150Z,35.1
2016-10-22T03:23:54.153Z,35.2
2016-10-22T03:24:54.472Z,35
2016-10-22T03:25:54.169Z,35.1
2016-10-22T03:26:54.226Z,35
2016-10-22T03:27:54.545Z,35.1
2016-10-22T03:28:54.504Z,35.1
2016-10-22T03:29:54.565Z,35.1
2016-10-22T03:30:54.513Z,35.1
2016-10-22T03:31:54.208Z,35.1
2016-10-22T03:32:54.582Z,35.2
2016-10-22T03:33:54.539Z,34.91
2016-10-22T03:34:54.593Z,35.1
2016-10-22T03:35:54.600Z,35.1
2016-10-22T03:36:54.558Z,35.1
2016-10-22T03:37:54.255Z,35.29
2016-10-22T03:38:54.306Z,35.2
2016-10-22T03:39:54.584Z,35.1
2016-10-22T03:40:54.275Z,35
2016-10-22T03:41:54.590Z,35.2
2016-10-22T03:42:54.599Z,35.1
2016-10-22T03:43:54.654Z,35.1
2016-10-22T03:44:54.614Z,35.1
2016-10-22T03:45:54.669Z,35.39
2016-10-22T03:46:54.627Z,35.39
2016-10-22T03:47:54.367Z,35.49
2016-10-22T03:48:54.640Z,35.39
2016-10-22T03:49:54.648Z,35.39
2016-10-22T03:50:54.389Z,35.2
2016-10-22T03:51:54.660Z,35.39
2016-10-22T03:52:54.355Z,35
2016-10-22T03:53:54.675Z,35.29
2016-10-22T03:54:54.681Z,35.39
2016-10-22T03:55:54.690Z,35.39
2016-10-22T03:56:54.382Z,35.39
2016-10-22T03:57:54.441Z,35.49
2016-10-22T03:58:54.398Z,35.49
2016-10-22T03:59:54.456Z,35.39
2016-10-22T04:00:54.408Z,35.2
2016-10-22T04:01:54.468Z,35.1
2016-10-22T04:02:54.425Z,35.2
2016-10-22T04:03:54.742Z,35.29
2016-10-22T04:04:54.749Z,35.1
2016-10-22T04:05:54.755Z,35.1
2016-10-22T04:06:54.458Z,35.1
2016-10-22T04:07:54.768Z,35.1
2016-10-22T04:08:54.464Z,35.1
2016-10-22T04:09:54.469Z,34.91
2016-10-22T04:10:54.479Z,35.1
2016-10-22T04:11:54.799Z,34.81
2016-10-22T04:12:54.490Z,34.71
2016-10-22T04:13:54.812Z,34.71
2016-10-22T04:14:54.868Z,34.71
2016-10-22T04:15:54.876Z,34.71
2016-10-22T04:16:54.884Z,34.62
2016-10-22T04:17:55.140Z,34.71
2016-10-22T04:18:54.844Z,34.81
2016-10-22T04:19:54.539Z,34.71
2016-10-22T04:20:54.861Z,34.71
2016-10-22T04:21:54.866Z,34.73
2016-10-22T04:22:54.872Z,34.71
2016-10-22T04:23:54.567Z,34.81
2016-10-22T04:24:54.897Z,34.71
2016-10-22T04:25:54.581Z,34.62
2016-10-22T04:26:54.589Z,34.71
2016-10-22T04:27:54.909Z,34.62
2016-10-22T04:28:54.653Z,34.71
2016-10-22T04:29:54.972Z,34.71
2016-10-22T04:30:54.979Z,34.71
2016-10-22T04:31:54.937Z,34.71
2016-10-22T04:32:54.991Z,34.81
2016-10-22T04:33:54.950Z,34.71
2016-10-22T04:34:54.747Z,34.71
2016-10-22T04:35:54.655Z,34.81
2016-10-22T04:36:54.969Z,35.1
2016-10-22T04:37:54.669Z,35.1
2016-10-22T04:38:54.985Z,35.1
2016-10-22T04:39:54.728Z,35.2
2016-10-22T04:40:55.299Z,35.1
2016-10-22T04:41:55.056Z,35.1
2016-10-22T04:42:54.751Z,34.91
2016-10-22T04:43:55.071Z,35
2016-10-22T04:44:55.027Z,35
2016-10-22T04:45:55.033Z,35.1
2016-10-22T04:46:55.040Z,35
2016-10-22T04:47:55.096Z,35
2016-10-22T04:48:55.103Z,35
2016-10-22T04:49:55.061Z,35
2016-10-22T04:50:54.757Z,35.1
2016-10-22T04:51:55.078Z,35
2016-10-22T04:52:54.771Z,35.1
2016-10-22T04:53:55.089Z,35.1
2016-10-22T04:54:55.095Z,35.2
2016-10-22T04:55:54.791Z,35.2
2016-10-22T04:56:54.846Z,35.1
2016-10-22T04:57:55.150Z,35.2
2016-10-22T04:59:09.687Z,35.1
2016-10-22T04:59:55.181Z,35
2016-10-22T05:00:54.826Z,35.1
2016-10-22T05:01:54.882Z,35.2
2016-10-22T05:02:55.202Z,35.1
2016-10-22T05:03:54.897Z,35.1
2016-10-22T05:04:54.852Z,35.2
2016-10-22T05:05:55.169Z,35.1
2016-10-22T05:06:54.865Z,35.1
2016-10-22T05:07:54.872Z,35.2
2016-10-22T05:08:55.195Z,35.2
2016-10-22T05:09:54.885Z,35
2016-10-22T05:10:54.892Z,35.1
2016-10-22T05:11:55.267Z,35
2016-10-22T05:12:55.220Z,35.1
2016-10-22T05:13:54.911Z,35.1
2016-10-22T05:14:54.919Z,35.2
2016-10-22T05:15:54.927Z,34.91
2016-10-22T05:16:55.496Z,35.1
2016-10-22T05:17:54.939Z,35.2
2016-10-22T05:18:54.998Z,35.1
2016-10-22T05:19:55.004Z,35.2
2016-10-22T05:20:55.324Z,35.1
2016-10-22T05:21:55.280Z,35.1
2016-10-22T05:22:55.338Z,35.2
2016-10-22T05:23:55.298Z,35
2016-10-22T05:24:55.302Z,35.2
2016-10-22T05:25:54.998Z,35.1
2016-10-22T05:26:55.313Z,35.2
2016-10-22T05:27:55.372Z,35.1
2016-10-22T05:28:55.017Z,35
2016-10-22T05:29:55.335Z,35.2
2016-10-22T05:30:55.348Z,35.1
2016-10-22T05:31:55.351Z,35.1
2016-10-22T05:32:55.409Z,35
2016-10-22T05:33:55.363Z,35.2
2016-10-22T05:34:55.472Z,35.1
2016-10-22T05:35:55.426Z,35.2
2016-10-22T05:36:55.382Z,35
2016-10-22T05:37:55.129Z,35.1
2016-10-22T05:38:55.399Z,34.71
2016-10-22T05:39:55.404Z,34.81
2016-10-22T05:40:55.098Z,34.71
2016-10-22T05:41:55.107Z,34.81
2016-10-22T05:42:55.524Z,34.81
2016-10-22T05:43:55.432Z,34.81
2016-10-22T05:44:55.437Z,34.71
2016-10-22T05:45:55.133Z,35.2
2016-10-22T05:46:55.454Z,34.81
2016-10-22T05:47:55.146Z,34.91
2016-10-22T05:48:55.156Z,34.91
2016-10-22T05:49:55.524Z,34.81
2016-10-22T05:50:55.539Z,34.71
2016-10-22T05:51:55.222Z,34.71
2016-10-22T05:52:55.232Z,34.71
2016-10-22T05:53:55.505Z,34.62
2016-10-22T05:54:55.509Z,34.71
2016-10-22T05:55:55.201Z,34.71
2016-10-22T05:56:55.208Z,34.71
2016-10-22T05:57:55.528Z,34.71
2016-10-22T05:58:55.224Z,34.81
2016-10-22T05:59:55.279Z,34.71
2016-10-22T06:00:55.235Z,34.81
2016-10-22T06:01:55.604Z,34.71
2016-10-22T06:02:55.300Z,34.71
2016-10-22T06:03:55.571Z,34.71
2016-10-22T06:04:55.264Z,34.91
2016-10-22T06:05:55.635Z,34.71
2016-10-22T06:06:55.590Z,34.62
2016-10-22T06:07:55.334Z,34.71
2016-10-22T06:08:55.603Z,34.81
2016-10-22T06:09:55.661Z,34.81
2016-10-22T06:10:55.618Z,34.71
2016-10-22T06:11:55.623Z,34.81
2016-10-22T06:12:55.632Z,34.71
2016-10-22T06:13:55.639Z,34.91
2016-10-22T06:14:55.334Z,34.91
2016-10-22T06:15:55.661Z,34.91
2016-10-22T06:16:55.709Z,34.91
2016-10-22T06:17:55.666Z,35
2016-10-22T06:18:55.723Z,35.1
2016-10-22T06:19:55.368Z,34.81
2016-10-22T06:20:55.688Z,35
2016-10-22T06:21:55.744Z,34.81
2016-10-22T06:22:55.752Z,35
2016-10-22T06:23:55.709Z,34.81
2016-10-22T06:24:55.404Z,34.62
2016-10-22T06:25:55.722Z,34.62
2016-10-22T06:26:55.727Z,34.52
2016-10-22T06:27:55.770Z,34.52
2016-10-22T06:28:55.429Z,34.52
2016-10-22T06:29:55.748Z,34.52
2016-10-22T06:30:55.442Z,34.52
2016-10-22T06:31:55.449Z,34.52
2016-10-22T06:32:55.459Z,34.42
2016-10-22T06:33:55.834Z,34.52
2016-10-22T06:34:55.833Z,34.52
2016-10-22T06:35:55.789Z,34.13
2016-10-22T06:36:55.946Z,34.33
2016-10-22T06:37:55.853Z,34.52
2016-10-22T06:38:55.810Z,34.62
2016-10-22T06:39:55.865Z,33.95
2016-10-22T06:40:55.508Z,34.42
2016-10-22T06:41:55.515Z,34.52
2016-10-22T06:42:55.834Z,34.33
2016-10-22T06:43:55.842Z,34.33
2016-10-22T06:44:55.544Z,34.54
2016-10-22T06:45:55.859Z,34.44
2016-10-22T06:46:55.862Z,34.63
2016-10-22T06:47:55.920Z,34.34
2016-10-22T06:48:55.878Z,34.63
2016-10-22T06:49:55.885Z,34.42
2016-10-22T06:50:55.578Z,33.86
2016-10-22T06:51:55.615Z,34.15
2016-10-22T06:52:55.907Z,34.54
2016-10-22T06:53:55.648Z,33.94
2016-10-22T06:54:55.970Z,33.95
2016-10-22T06:55:55.976Z,34.33
2016-10-22T06:56:55.934Z,34.44
2016-10-22T06:57:55.939Z,34.13
2016-10-22T06:59:10.560Z,34.04
2016-10-22T06:59:55.955Z,34.54
2016-10-22T07:00:55.646Z,34.05
2016-10-22T07:01:55.967Z,34.44
2016-10-22T07:02:55.659Z,34.54
2016-10-22T07:03:56.081Z,33.95
2016-10-22T07:04:55.987Z,33.84
2016-10-22T07:05:55.994Z,33.86
2016-10-22T07:06:55.740Z,34.15
2016-10-22T07:07:56.102Z,34.05
2016-10-22T07:08:56.013Z,34.44
2016-10-22T07:09:55.759Z,34.44
2016-10-22T07:10:55.766Z,33.95
2016-10-22T07:11:56.087Z,34.42
2016-10-22T07:12:56.042Z,33.86
2016-10-22T07:13:55.732Z,34.15
2016-10-22T07:14:56.056Z,34.13
2016-10-22T07:15:56.061Z,34.05
2016-10-22T07:16:56.118Z,34.44
2016-10-22T07:17:56.076Z,34.05
2016-10-22T07:18:55.768Z,34.23
2016-10-22T07:19:55.780Z,34.33
2016-10-22T07:20:56.094Z,34.33
2016-10-22T07:21:56.104Z,34.34
2016-10-22T07:22:55.796Z,34.42
2016-10-22T07:23:56.167Z,34.42
2016-10-22T07:24:56.124Z,34.42
2016-10-22T07:25:56.131Z,34.13
2016-10-22T07:26:56.218Z,33.84
2016-10-22T07:27:56.132Z,33.94
2016-10-22T07:28:56.151Z,34.33
2016-10-22T07:29:56.160Z,34.15
2016-10-22T07:30:56.165Z,33.86
2016-10-22T07:31:55.859Z,33.57
2016-10-22T07:32:56.179Z,32.91
2016-10-22T07:33:56.185Z,32.91
2016-10-22T07:34:56.191Z,32.44
2016-10-22T07:35:55.887Z,32.15
2016-10-22T07:36:56.256Z,31.57
2016-10-22T07:37:55.934Z,31.49
2016-10-22T07:38:56.260Z,31.01
2016-10-22T07:39:55.913Z,30.82
2016-10-22T07:40:56.337Z,30.15
2016-10-22T07:41:56.291Z,29.97
2016-10-22T07:42:55.983Z,30.26
2016-10-22T07:43:56.254Z,29.5
2016-10-22T07:44:56.072Z,29.6
2016-10-22T07:45:56.333Z,29.11
2016-10-22T07:46:56.012Z,29.3
2016-10-22T07:47:56.281Z,29.32
2016-10-22T07:48:55.975Z,28.93
2016-10-22T07:49:55.982Z,28.64
2016-10-22T07:50:56.302Z,28.54
2016-10-22T07:51:56.360Z,28.26
2016-10-22T07:52:56.005Z,28.26
2016-10-22T07:53:56.322Z,28.45
2016-10-22T07:54:56.121Z,27.97
2016-10-22T07:55:56.531Z,27.97
2016-10-22T07:56:56.187Z,28.07
2016-10-22T07:57:56.089Z,27.87
2016-10-22T07:58:56.044Z,28.07
2016-10-22T07:59:56.368Z,28.18
2016-10-22T08:00:56.107Z,27.68
2016-10-22T08:01:56.383Z,27.69
2016-10-22T08:02:56.435Z,27.69
2016-10-22T08:03:56.396Z,28.18
2016-10-22T08:04:56.338Z,27.79
2016-10-22T08:05:56.463Z,27.89
2016-10-22T08:06:56.413Z,27.79
2016-10-22T08:07:56.435Z,27.58
2016-10-22T08:08:56.429Z,27.89
2016-10-22T08:09:56.175Z,27.79
2016-10-22T08:10:56.182Z,27.79
2016-10-22T08:11:56.450Z,27.89
2016-10-22T08:12:56.201Z,27.69
2016-10-22T08:13:56.250Z,27.69
2016-10-22T08:14:56.522Z,27.79
2016-10-22T08:15:56.510Z,27.79
2016-10-22T08:16:56.172Z,27.79
2016-10-22T08:17:56.491Z,27.69
2016-10-22T08:18:56.498Z,27.59
2016-10-22T08:19:56.503Z,27.69
2016-10-22T08:20:56.520Z,27.69
2016-10-22T08:21:56.569Z,27.89
2016-10-22T08:22:56.544Z,27.11
2016-10-22T08:23:56.533Z,27.89
2016-10-22T08:24:56.592Z,27.21
2016-10-22T08:25:56.551Z,28.08
2016-10-22T08:26:56.607Z,27.98
2016-10-22T08:27:56.254Z,27.89
2016-10-22T08:28:56.259Z,27.89
2016-10-22T08:29:56.315Z,27.79
2016-10-22T08:30:56.273Z,27.79
2016-10-22T08:31:56.306Z,27.89
2016-10-22T08:32:56.601Z,27.98
2016-10-22T08:33:56.293Z,28.08
2016-10-22T08:34:56.615Z,28.09
2016-10-22T08:35:56.310Z,27.7
2016-10-22T08:36:56.630Z,28.09
2016-10-22T08:37:56.671Z,27.98
2016-10-22T08:38:56.330Z,27.69
2016-10-22T08:39:56.652Z,28.09
2016-10-22T08:40:56.343Z,27.9
2016-10-22T08:41:56.664Z,28.09
2016-10-22T08:42:56.671Z,28
2016-10-22T08:43:56.684Z,28
2016-10-22T08:44:56.475Z,28
2016-10-22T08:45:56.695Z,27.7
2016-10-22T08:46:56.783Z,28.09
2016-10-22T08:47:56.395Z,27.7
2016-10-22T08:48:56.765Z,27.8
2016-10-22T08:49:56.725Z,27.61
2016-10-22T08:50:56.472Z,27.51
2016-10-22T08:51:56.739Z,27.32
2016-10-22T08:52:56.484Z,27.8
2016-10-22T08:53:56.771Z,27.61
2016-10-22T08:54:56.451Z,27.42
2016-10-22T08:55:56.769Z,27.9
2016-10-22T08:56:56.469Z,27.61
2016-10-22T08:57:56.823Z,27.42
2016-10-22T08:58:56.793Z,28.19
2016-10-22T08:59:56.485Z,28.49
2016-10-22T09:00:56.805Z,28.18
2016-10-22T09:01:56.813Z,28.47
2016-10-22T09:02:56.873Z,28.47
2016-10-22T09:03:56.828Z,28.28
2016-10-22T09:04:56.887Z,28.18
2016-10-22T09:05:56.845Z,28.57
2016-10-22T09:06:56.891Z,28.28
2016-10-22T09:07:56.594Z,28.28
2016-10-22T09:08:56.879Z,28.47
2016-10-22T09:09:56.566Z,28.38
2016-10-22T09:10:56.931Z,28.47
2016-10-22T09:11:57.139Z,28.28
2016-10-22T09:12:56.582Z,28.38
2016-10-22T09:13:56.595Z,28.29
2016-10-22T09:14:56.909Z,28.49
2016-10-22T09:15:56.606Z,28.19
2016-10-22T09:16:56.928Z,28.39
2016-10-22T09:17:56.671Z,28.39
2016-10-22T09:18:56.941Z,28.58
2016-10-22T09:19:56.946Z,28.49
2016-10-22T09:20:56.961Z,28.39
2016-10-22T09:21:56.650Z,28.39
2016-10-22T09:22:56.989Z,28.29
2016-10-22T09:23:56.675Z,28.29
2016-10-22T09:24:57.041Z,28.29
2016-10-22T09:25:56.680Z,28.29
2016-10-22T09:26:56.738Z,28.39
2016-10-22T09:27:56.698Z,28.29
2016-10-22T09:28:56.754Z,28.39
2016-10-22T09:29:57.074Z,28.39
2016-10-22T09:30:57.080Z,28.29
2016-10-22T09:31:56.926Z,28.29
2016-10-22T09:32:57.045Z,28.28
2016-10-22T09:33:56.740Z,28.39
2016-10-22T09:34:56.749Z,28.57
2016-10-22T09:35:57.073Z,28.08
2016-10-22T09:36:56.778Z,28.28
2016-10-22T09:37:56.823Z,28.47
2016-10-22T09:38:57.092Z,28.57
2016-10-22T09:39:57.096Z,28.08
2016-10-22T09:40:56.795Z,29.05
2016-10-22T09:41:57.133Z,28.66
2016-10-22T09:42:56.885Z,29.05
2016-10-22T09:43:56.839Z,29.05
2016-10-22T09:44:57.093Z,28.97
2016-10-22T09:45:57.149Z,28.96
2016-10-22T09:46:56.839Z,29.05
2016-10-22T09:47:57.160Z,28.96
2016-10-22T09:48:56.853Z,28.96
2016-10-22T09:49:56.861Z,29.15
2016-10-22T09:50:57.181Z,29.15
2016-10-22T09:51:56.877Z,29.15
2016-10-22T09:52:56.884Z,29.05
2016-10-22T09:53:57.206Z,29.15
2016-10-22T09:54:57.213Z,29.35
2016-10-22T09:55:56.909Z,28.97
2016-10-22T09:56:56.916Z,29.16
2016-10-22T09:57:57.030Z,29.26
2016-10-22T09:58:57.426Z,29.16
2016-10-22T09:59:56.987Z,29.06
2016-10-22T10:00:56.947Z,29.16
2016-10-22T10:01:56.952Z,29.26
2016-10-22T10:02:57.260Z,29.06
2016-10-22T10:03:57.329Z,29.36
2016-10-22T10:04:57.288Z,29.46
2016-10-22T10:05:57.299Z,29.36
2016-10-22T10:06:56.987Z,29.36
2016-10-22T10:07:57.309Z,29.26
2016-10-22T10:08:57.323Z,29.06
2016-10-22T10:09:57.341Z,29.36
2016-10-22T10:10:57.366Z,29.36
2016-10-22T10:11:57.387Z,29.35
2016-10-22T10:12:57.033Z,29.25
2016-10-22T10:13:57.404Z,29.15
2016-10-22T10:14:57.052Z,29.25
2016-10-22T10:15:57.373Z,28.88
2016-10-22T10:16:57.377Z,29.35
2016-10-22T10:17:57.124Z,29.35
2016-10-22T10:18:57.392Z,29.25
2016-10-22T10:19:57.138Z,29.35
2016-10-22T10:20:57.096Z,29.46
2016-10-22T10:21:57.414Z,29.05
2016-10-22T10:22:57.111Z,29.05
2016-10-22T10:23:57.173Z,29.05
2016-10-22T10:24:57.438Z,29.06
2016-10-22T10:25:57.133Z,28.96
2016-10-22T10:26:57.457Z,28.96
2016-10-22T10:27:57.198Z,29.05
2016-10-22T10:28:57.157Z,29.05
2016-10-22T10:29:57.538Z,29.15
2016-10-22T10:30:57.487Z,29.35
2016-10-22T10:31:57.180Z,28.97
2016-10-22T10:32:57.501Z,29.35
2016-10-22T10:33:57.198Z,29.44
2016-10-22T10:34:57.514Z,29.44
2016-10-22T10:35:57.523Z,29.44
2016-10-22T10:36:57.268Z,29.35
2016-10-22T10:37:57.228Z,29.54
2016-10-22T10:38:57.552Z,29.25
2016-10-22T10:39:57.553Z,29.54
2016-10-22T10:40:57.613Z,29.64
2016-10-22T10:41:57.255Z,29.05
2016-10-22T10:42:57.577Z,29.05
2016-10-22T10:43:57.587Z,29.15
2016-10-22T10:44:57.593Z,29.05
2016-10-22T10:45:57.602Z,29.15
2016-10-22T10:46:57.294Z,29.25
2016-10-22T10:47:57.614Z,29.44
2016-10-22T10:48:57.312Z,29.44
2016-10-22T10:49:57.317Z,29.35
2016-10-22T10:50:57.689Z,29.25
2016-10-22T10:51:57.652Z,29.35
2016-10-22T10:52:57.702Z,29.44
2016-10-22T10:53:57.658Z,29.46
2016-10-22T10:54:57.356Z,29.35
2016-10-22T10:55:57.675Z,29.44
2016-10-22T10:56:57.681Z,29.15
2016-10-22T10:57:57.387Z,29.25
2016-10-22T10:58:57.699Z,29.36
2016-10-22T10:59:57.714Z,29.54
2016-10-22T11:00:57.450Z,29.15
2016-10-22T11:01:57.781Z,29.35
2016-10-22T11:02:57.469Z,29.15
2016-10-22T11:03:57.736Z,29.25
2016-10-22T11:04:57.431Z,29.15
2016-10-22T11:05:57.512Z,29.15
2016-10-22T11:06:57.816Z,29.25
2016-10-22T11:07:57.510Z,29.25
2016-10-22T11:08:57.773Z,29.05
2016-10-22T11:09:57.783Z,29.15
2016-10-22T11:10:57.477Z,29.54
2016-10-22T11:11:57.482Z,29.54
2016-10-22T11:12:57.491Z,29.54
2016-10-22T11:13:57.817Z,29.15
2016-10-22T11:14:57.820Z,29.15
2016-10-22T11:15:57.517Z,29.15
2016-10-22T11:16:57.838Z,29.15
2016-10-22T11:17:57.531Z,29.16
2016-10-22T11:18:57.850Z,29.16
2016-10-22T11:19:57.547Z,29.26
2016-10-22T11:20:57.555Z,29.36
2016-10-22T11:21:57.561Z,29.36
2016-10-22T11:22:57.820Z,29.46
2016-10-22T11:23:57.991Z,29.36
2016-10-22T11:24:57.586Z,29.26
2016-10-22T11:25:57.906Z,29.36
2016-10-22T11:26:57.912Z,29.16
2016-10-22T11:27:57.921Z,29.06
2016-10-22T11:28:57.928Z,29.06
2016-10-22T11:29:57.625Z,29.06
2016-10-22T11:30:57.943Z,29.16
2016-10-22T11:31:57.951Z,29.06
2016-10-22T11:32:57.690Z,28.88
2016-10-22T11:33:57.654Z,29.06
2016-10-22T11:34:57.815Z,28.88
2016-10-22T11:35:58.032Z,28.88
2016-10-22T11:36:57.991Z,28.78
2016-10-22T11:37:57.683Z,28.97
2016-10-22T11:38:58.003Z,28.78
2016-10-22T11:39:57.696Z,28.88
2016-10-22T11:40:57.806Z,28.58
2016-10-22T11:41:57.712Z,28.49
2016-10-22T11:42:57.721Z,28.58
2016-10-22T11:43:57.728Z,28.68
2016-10-22T11:44:58.049Z,28.68
2016-10-22T11:45:57.742Z,28.58
2016-10-22T11:46:58.120Z,28.58
2016-10-22T11:47:58.075Z,28.58
2016-10-22T11:48:57.766Z,28
2016-10-22T11:49:57.774Z,28.11
2016-10-22T11:50:58.143Z,28.11
2016-10-22T11:51:57.789Z,28.09
2016-10-22T11:52:57.794Z,28.09
2016-10-22T11:53:57.854Z,27.9
2016-10-22T11:54:57.913Z,28.29
2016-10-22T11:55:57.872Z,28.09
2016-10-22T11:56:57.828Z,28.3
2016-10-22T11:57:58.151Z,27.9
2016-10-22T11:58:57.924Z,28.2
2016-10-22T11:59:57.903Z,28
2016-10-22T12:00:58.174Z,28.19
2016-10-22T12:01:57.866Z,28.29
2016-10-22T12:02:57.874Z,28.4
2016-10-22T12:03:58.199Z,28.4
2016-10-22T12:04:57.895Z,28.3
2016-10-22T12:05:57.897Z,28.39
2016-10-22T12:06:58.007Z,28.4
2016-10-22T12:07:57.913Z,28.3
2016-10-22T12:08:58.236Z,28.4
2016-10-22T12:09:58.327Z,28.3
2016-10-22T12:10:58.300Z,28.2
2016-10-22T12:11:58.311Z,28.39
2016-10-22T12:12:57.950Z,28.4
2016-10-22T12:13:57.956Z,28.5
2016-10-22T12:14:57.965Z,28.4
2016-10-22T12:15:57.975Z,28.5
2016-10-22T12:16:58.294Z,28.4
2016-10-22T12:17:58.300Z,28.2
2016-10-22T12:18:58.045Z,28.4
2016-10-22T12:19:58.316Z,28.4
2016-10-22T12:20:58.324Z,28.4
2016-10-22T12:21:58.017Z,28.5
2016-10-22T12:22:58.338Z,28.3
2016-10-22T12:23:58.396Z,28.5
2016-10-22T12:24:58.039Z,28.4
2016-10-22T12:25:58.047Z,28.5
2016-10-22T12:26:58.114Z,28.3
2016-10-22T12:27:58.426Z,28.4
2016-10-22T12:28:58.387Z,28.3
2016-10-22T12:29:58.391Z,28.3
2016-10-22T12:30:58.401Z,28.3
2016-10-22T12:31:58.406Z,28.3
2016-10-22T12:32:58.150Z,28.4
2016-10-22T12:33:58.471Z,28.2
2016-10-22T12:34:58.429Z,28.4
2016-10-22T12:35:58.488Z,28.4
2016-10-22T12:36:58.133Z,28.5
2016-10-22T12:37:58.460Z,28.4
2016-10-22T12:38:58.198Z,28.2
2016-10-22T12:39:58.155Z,28.4
2016-10-22T12:40:58.164Z,28.4
2016-10-22T12:41:58.230Z,28.2
2016-10-22T12:42:58.845Z,28.11
2016-10-22T12:43:58.186Z,28.02
2016-10-22T12:44:58.195Z,28.2
2016-10-22T12:45:58.519Z,28.4
2016-10-22T12:46:58.526Z,28.5
2016-10-22T12:47:58.219Z,28.39
2016-10-22T12:48:58.276Z,28.09
2016-10-22T12:49:58.233Z,28.4
2016-10-22T12:50:58.245Z,28.2
2016-10-22T12:51:58.564Z,28.2
2016-10-22T12:52:58.568Z,28.39
2016-10-22T12:53:58.577Z,28.29
2016-10-22T12:54:58.635Z,28.29
2016-10-22T12:55:58.331Z,28.29
2016-10-22T12:56:58.341Z,28.29
2016-10-22T12:57:58.658Z,28.19
2016-10-22T12:58:58.665Z,28.39
2016-10-22T12:59:58.713Z,28.29
2016-10-22T13:00:58.683Z,28.39
2016-10-22T13:01:58.331Z,28.39
2016-10-22T13:02:58.646Z,28.39